createdAt,value
2022-09-28T00:00:57.110Z,92527.16
2022-09-28T00:04:00.438Z,92534.41
2022-09-28T00:07:03.646Z,92533.28
2022-09-28T00:10:07.124Z,92530.94
2022-09-28T00:13:10.422Z,92531.22
2022-09-28T00:16:16.356Z,92524.19
2022-09-28T00:19:19.379Z,92525.53
2022-09-28T00:22:22.416Z,92520.25
2022-09-28T00:25:25.654Z,92517.66
2022-09-28T00:28:28.617Z,92508.66
2022-09-28T00:31:34.185Z,92508.72
2022-09-28T00:34:41.297Z,92506.22
2022-09-28T00:37:44.337Z,92507.63
2022-09-28T00:40:47.423Z,92494.88
2022-09-28T00:43:50.645Z,92495.03
2022-09-28T00:47:20.074Z,92497.19
2022-09-28T00:50:32.690Z,92491.53
2022-09-28T00:53:38.818Z,92488.53
2022-09-28T00:56:45.583Z,92498.44
2022-09-28T00:59:50.074Z,92495.25
2022-09-28T01:02:53.347Z,92497.25
2022-09-28T01:05:59.890Z,92484.31
2022-09-28T01:09:06.501Z,92485.63
2022-09-28T01:12:09.707Z,92481.06
2022-09-28T01:15:12.898Z,92482.97
2022-09-28T01:18:39.202Z,92479.03
2022-09-28T01:21:53.832Z,92486.88
2022-09-28T01:25:34.832Z,92482.38
2022-09-28T01:28:39.276Z,92476.56
2022-09-28T01:31:47.267Z,92469.41
2022-09-28T01:35:15.638Z,92468.09
2022-09-28T01:38:26.284Z,92468.81
2022-09-28T01:41:32.219Z,92461.03
2022-09-28T01:44:40.505Z,92464.97
2022-09-28T01:47:47.882Z,92459.75
2022-09-28T01:50:55.464Z,92455.81
2022-09-28T01:54:06.582Z,92447.94
2022-09-28T01:57:35.914Z,92452.38
2022-09-28T02:00:43.770Z,92447.16
2022-09-28T02:03:57.772Z,92447.72
2022-09-28T02:07:09.536Z,92453.44
2022-09-28T02:10:24.435Z,92455.16
2022-09-28T02:13:33.648Z,92441.88
2022-09-28T02:16:45.625Z,92437.72
2022-09-28T02:19:49.374Z,92436.91
2022-09-28T02:22:58.204Z,92435.97
2022-09-28T02:26:09.848Z,92443.66
2022-09-28T02:29:13.573Z,92425.19
2022-09-28T02:32:17.952Z,92416.47
2022-09-28T02:35:21.818Z,92403.81
2022-09-28T02:38:25.179Z,92400.19
2022-09-28T02:41:28.154Z,92397.56
2022-09-28T02:44:44.681Z,92390.19
2022-09-28T02:48:07.381Z,92374.00
2022-09-28T02:51:48.463Z,92369.84
2022-09-28T02:54:58.182Z,92360.16
2022-09-28T02:58:23.725Z,92361.41
2022-09-28T03:01:35.781Z,92359.06
2022-09-28T03:04:43.070Z,92351.16
2022-09-28T03:08:01.116Z,92363.31
2022-09-28T03:11:37.292Z,92355.75
2022-09-28T03:14:40.544Z,92353.66
2022-09-28T03:17:44.265Z,92345.53
2022-09-28T03:20:50.293Z,92333.63
2022-09-28T03:23:53.411Z,92331.09
2022-09-28T03:26:56.666Z,92320.88
2022-09-28T03:29:59.990Z,92325.66
2022-09-28T03:33:03.751Z,92325.56
2022-09-28T03:36:10.174Z,92309.88
2022-09-28T03:39:14.004Z,92298.56
2022-09-28T03:42:17.215Z,92297.00
2022-09-28T03:45:24.426Z,92280.88
2022-09-28T03:48:35.506Z,92283.31
2022-09-28T03:51:38.698Z,92275.34
2022-09-28T03:54:44.643Z,92276.50
2022-09-28T03:57:59.271Z,92265.78
2022-09-28T04:01:05.069Z,92276.16
2022-09-28T04:04:08.344Z,92276.66
2022-09-28T04:07:11.442Z,92273.34
2022-09-28T04:10:14.588Z,92258.22
2022-09-28T04:13:17.613Z,92261.41
2022-09-28T04:16:22.666Z,92258.91
2022-09-28T04:19:51.806Z,92249.53
2022-09-28T04:23:01.772Z,92253.97
2022-09-28T04:26:07.328Z,92258.97
2022-09-28T04:29:17.515Z,92243.66
2022-09-28T04:32:39.832Z,92244.56
2022-09-28T04:35:43.285Z,92240.28
2022-09-28T04:38:53.255Z,92224.63
2022-09-28T04:41:58.786Z,92229.66
2022-09-28T04:45:05.347Z,92225.16
2022-09-28T04:48:12.247Z,92214.44
2022-09-28T04:51:35.391Z,92205.91
2022-09-28T04:54:38.588Z,92201.44
2022-09-28T04:57:42.546Z,92208.56
2022-09-28T05:00:45.753Z,92177.81
2022-09-28T05:04:15.033Z,92173.69
2022-09-28T05:07:36.428Z,92177.56
2022-09-28T05:10:42.124Z,92167.94
2022-09-28T05:13:46.517Z,92161.78
2022-09-28T05:16:52.226Z,92153.38
2022-09-28T05:19:58.027Z,92144.31
2022-09-28T05:23:02.611Z,92142.25
2022-09-28T05:26:05.907Z,92132.38
2022-09-28T05:29:11.714Z,92137.63
2022-09-28T05:32:20.708Z,92141.38
2022-09-28T05:35:49.810Z,92123.53
2022-09-28T05:38:55.952Z,92119.69
2022-09-28T05:41:59.613Z,92116.44
2022-09-28T05:45:04.210Z,92108.16
2022-09-28T05:48:07.281Z,92109.00
2022-09-28T05:51:10.925Z,92100.78
2022-09-28T05:54:13.940Z,92095.09
2022-09-28T05:57:21.017Z,92097.41
2022-09-28T06:00:24.668Z,92096.44
2022-09-28T06:03:30.506Z,92088.84
2022-09-28T06:06:36.186Z,92084.06
2022-09-28T06:09:39.370Z,92081.66
2022-09-28T06:12:55.633Z,92087.31
2022-09-28T06:15:58.702Z,92084.56
2022-09-28T06:19:02.947Z,92073.19
2022-09-28T06:22:24.305Z,92079.16
2022-09-28T06:25:42.193Z,92067.63
2022-09-28T06:28:45.408Z,92062.72
2022-09-28T06:31:48.879Z,92050.16
2022-09-28T06:34:56.319Z,92049.56
2022-09-28T06:38:02.174Z,92045.75
2022-09-28T06:41:06.590Z,92045.75
2022-09-28T06:44:09.751Z,92045.91
2022-09-28T06:47:32.660Z,92030.75
2022-09-28T06:50:55.848Z,92032.81
2022-09-28T06:54:37.515Z,92034.44
2022-09-28T06:58:01.143Z,92018.97
2022-09-28T07:01:06.716Z,92021.81
2022-09-28T07:04:21.361Z,92014.00
2022-09-28T07:07:45.366Z,92015.06
2022-09-28T07:11:14.833Z,92004.41
2022-09-28T07:17:58.413Z,92010.97
2022-09-28T07:21:04.672Z,91994.38
2022-09-28T07:24:07.909Z,91994.09
2022-09-28T07:27:30.958Z,91983.75
2022-09-28T07:31:03.989Z,91989.75
2022-09-28T07:34:26.413Z,91981.97
2022-09-28T07:37:39.352Z,91977.78
2022-09-28T07:41:01.094Z,91970.59
2022-09-28T07:44:07.638Z,91967.47
2022-09-28T07:47:12.515Z,91975.28
2022-09-28T07:50:52.939Z,91964.78
2022-09-28T07:54:07.181Z,91959.31
2022-09-28T07:57:30.470Z,91958.91
2022-09-28T08:00:48.825Z,91940.19
2022-09-28T08:03:56.912Z,91952.22
2022-09-28T08:07:00.996Z,91935.88
2022-09-28T08:10:05.137Z,91931.66
2022-09-28T08:13:35.227Z,91929.84
2022-09-28T08:16:58.329Z,91922.84
2022-09-28T08:20:32.054Z,91913.84
2022-09-28T08:23:35.090Z,91911.47
2022-09-28T08:26:38.536Z,91907.78
2022-09-28T08:29:43.643Z,91912.13
2022-09-28T08:33:09.227Z,91907.13
2022-09-28T08:36:18.015Z,91913.28
2022-09-28T08:39:39.128Z,91900.88
2022-09-28T08:43:56.032Z,91895.81
2022-09-28T08:51:28.850Z,91897.41
2022-09-28T08:58:36.418Z,91899.19
2022-09-28T09:01:47.345Z,91900.56
2022-09-28T09:04:53.425Z,91897.38
2022-09-28T09:08:22.320Z,91907.19
2022-09-28T09:11:58.791Z,91883.59
2022-09-28T09:15:22.994Z,91911.34
2022-09-28T09:18:38.809Z,91908.88
2022-09-28T09:22:03.789Z,91903.22
2022-09-28T09:25:38.585Z,91905.50
2022-09-28T09:29:22.075Z,91896.09
2022-09-28T09:32:41.833Z,91884.72
2022-09-28T09:35:54.586Z,91885.44
2022-09-28T09:40:03.065Z,91877.75
2022-09-28T09:43:50.272Z,91861.91
2022-09-28T09:47:43.768Z,91851.38
2022-09-28T09:51:03.957Z,91845.97
2022-09-28T09:54:19.110Z,91843.97
2022-09-28T09:57:31.036Z,91847.84
2022-09-28T10:00:52.446Z,91851.22
2022-09-28T10:04:43.868Z,91851.38
2022-09-28T10:08:05.380Z,91857.38
2022-09-28T10:11:11.128Z,91858.13
2022-09-28T10:14:22.190Z,91853.59
2022-09-28T10:17:38.401Z,91862.69
2022-09-28T10:20:59.980Z,91847.59
2022-09-28T10:24:37.679Z,91848.09
2022-09-28T10:27:48.080Z,91839.72
2022-09-28T10:30:51.659Z,91838.47
2022-09-28T10:33:58.606Z,91833.28
2022-09-28T10:37:07.712Z,91831.31
2022-09-28T10:40:38.158Z,91827.38
2022-09-28T10:44:06.980Z,91820.28
2022-09-28T10:47:20.405Z,91820.81
2022-09-28T10:50:28.781Z,91815.78
2022-09-28T10:54:03.438Z,91798.84
2022-09-28T10:57:36.377Z,91804.94
2022-09-28T11:00:43.922Z,91800.53
2022-09-28T11:04:01.284Z,91803.91
2022-09-28T11:07:05.590Z,91797.38
2022-09-28T11:10:21.507Z,91809.16
2022-09-28T11:13:26.205Z,91803.31
2022-09-28T11:16:38.438Z,91795.53
2022-09-28T11:19:42.798Z,91786.38
2022-09-28T11:22:48.692Z,91779.22
2022-09-28T11:26:08.754Z,91781.94
2022-09-28T11:29:43.116Z,91780.66
2022-09-28T11:33:20.751Z,91786.47
2022-09-28T11:37:07.116Z,91768.22
2022-09-28T11:40:18.989Z,91776.22
2022-09-28T11:43:43.585Z,91769.13
2022-09-28T11:47:04.720Z,91767.16
2022-09-28T11:50:24.622Z,91773.19
2022-09-28T11:53:36.191Z,91760.84
2022-09-28T11:56:43.552Z,91759.03
2022-09-28T12:00:00.973Z,91756.50
2022-09-28T12:03:24.350Z,91762.44
2022-09-28T12:06:45.926Z,91763.66
2022-09-28T12:10:01.898Z,91751.97
2022-09-28T12:13:12.565Z,91751.97
2022-09-28T12:17:00.530Z,91756.56
2022-09-28T12:20:00.414Z,91751.88
2022-09-28T12:23:14.031Z,91752.63
2022-09-28T12:26:27.533Z,91748.78
2022-09-28T12:29:35.636Z,91749.53
2022-09-28T12:33:04.822Z,91746.25
2022-09-28T12:36:26.864Z,91750.25
2022-09-28T12:39:56.607Z,91745.59
2022-09-28T12:43:01.969Z,91740.38
2022-09-28T12:46:14.238Z,91745.00
2022-09-28T12:50:20.003Z,91737.88
2022-09-28T12:52:56.084Z,91749.00
2022-09-28T12:56:25.855Z,91735.84
2022-09-28T12:59:45.763Z,91739.75
2022-09-28T13:03:10.141Z,91746.38
2022-09-28T13:06:31.260Z,91727.97
2022-09-28T13:09:55.455Z,91735.19
2022-09-28T13:13:25.060Z,91733.16
2022-09-28T13:16:38.768Z,91731.88
2022-09-28T13:20:15.141Z,91729.19
2022-09-28T13:23:57.890Z,91720.75
2022-09-28T13:27:16.537Z,91716.25
2022-09-28T13:30:20.054Z,91710.38
2022-09-28T13:33:37.381Z,91710.94
2022-09-28T13:36:47.191Z,91701.03
2022-09-28T13:39:58.926Z,91701.09
2022-09-28T13:43:19.597Z,91708.31
2022-09-28T13:46:45.881Z,91697.31
2022-09-28T13:50:25.297Z,91701.34
2022-09-28T13:54:08.588Z,91687.06
2022-09-28T13:57:18.681Z,91682.16
2022-09-28T14:00:25.971Z,91675.69
2022-09-28T14:03:57.552Z,91681.13
2022-09-28T14:07:17.292Z,91683.22
2022-09-28T14:10:22.114Z,91677.38
2022-09-28T14:13:43.689Z,91670.28
2022-09-28T14:16:47.323Z,91669.13
2022-09-28T14:20:11.096Z,91665.03
2022-09-28T14:23:40.112Z,91665.03
2022-09-28T14:27:15.342Z,91666.22
2022-09-28T14:30:23.479Z,91671.28
2022-09-28T14:33:33.076Z,91673.16
2022-09-28T14:37:06.882Z,91679.09
2022-09-28T14:40:37.737Z,91678.63
2022-09-28T14:43:46.992Z,91674.88
2022-09-28T14:46:50.127Z,91682.91
2022-09-28T14:50:02.383Z,91702.56
2022-09-28T14:53:14.480Z,91713.00
2022-09-28T14:56:20.203Z,91717.47
2022-09-28T14:59:25.652Z,91697.81
2022-09-28T15:02:33.864Z,91703.66
2022-09-28T15:05:45.066Z,91715.44
2022-09-28T15:08:48.135Z,91708.19
2022-09-28T15:11:58.107Z,91695.75
2022-09-28T15:15:08.820Z,91698.91
2022-09-28T15:18:26.234Z,91699.59
2022-09-28T15:21:39.432Z,91682.75
2022-09-28T15:24:55.242Z,91695.28
2022-09-28T15:28:04.066Z,91694.03
2022-09-28T15:31:07.435Z,91694.72
2022-09-28T15:34:52.456Z,91695.91
2022-09-28T15:37:56.539Z,91691.38
2022-09-28T15:41:03.355Z,91699.19
2022-09-28T15:44:09.033Z,91689.44
2022-09-28T15:47:25.806Z,91687.69
2022-09-28T15:50:30.581Z,91685.34
2022-09-28T15:53:34.565Z,91686.69
2022-09-28T15:57:06.910Z,91686.69
2022-09-28T16:00:22.129Z,91695.81
2022-09-28T16:03:29.965Z,91704.28
2022-09-28T16:06:33.082Z,91714.66
2022-09-28T16:09:54.499Z,91713.25
2022-09-28T16:13:09.100Z,91713.22
2022-09-28T16:16:17.473Z,91714.47
2022-09-28T16:19:25.569Z,91718.72
2022-09-28T16:22:29.030Z,91718.81
2022-09-28T16:25:38.034Z,91739.50
2022-09-28T16:28:41.402Z,91721.72
2022-09-28T16:31:51.996Z,91725.25
2022-09-28T16:35:19.413Z,91729.91
2022-09-28T16:38:22.489Z,91728.31
2022-09-28T16:41:29.705Z,91733.56
2022-09-28T16:44:36.940Z,91735.56
2022-09-28T16:47:41.217Z,91738.06
2022-09-28T16:50:45.794Z,91755.59
2022-09-28T16:54:18.204Z,91758.88
2022-09-28T16:57:21.280Z,91767.28
2022-09-28T17:00:26.435Z,91765.13
2022-09-28T17:03:29.842Z,91779.50
2022-09-28T17:06:33.477Z,91774.34
2022-09-28T17:09:36.599Z,91780.47
2022-09-28T17:12:39.738Z,91787.25
2022-09-28T17:15:43.717Z,91788.03
2022-09-28T17:18:48.645Z,91777.75
2022-09-28T17:21:52.973Z,91779.13
2022-09-28T17:24:55.981Z,91780.66
2022-09-28T17:27:59.539Z,91778.22
2022-09-28T17:31:03.542Z,91786.81
2022-09-28T17:34:07.050Z,91785.59
2022-09-28T17:37:15.390Z,91781.66
2022-09-28T17:40:28.955Z,91780.94
2022-09-28T17:43:31.994Z,91772.97
2022-09-28T17:46:38.424Z,91774.81
2022-09-28T17:49:44.307Z,91770.81
2022-09-28T17:52:53.146Z,91768.19
2022-09-28T17:55:56.476Z,91750.75
2022-09-28T17:59:05.602Z,91752.19
2022-09-28T18:02:12.312Z,91762.16
2022-09-28T18:05:15.739Z,91766.19
2022-09-28T18:08:20.947Z,91768.78
2022-09-28T18:11:24.309Z,91764.22
2022-09-28T18:14:27.684Z,91765.44
2022-09-28T18:17:30.719Z,91770.63
2022-09-28T18:20:35.819Z,91754.28
2022-09-28T18:23:39.726Z,91758.28
2022-09-28T18:26:42.701Z,91763.56
2022-09-28T18:29:45.660Z,91761.00
2022-09-28T18:32:48.817Z,91765.59
2022-09-28T18:35:54.493Z,91770.13
2022-09-28T18:38:57.975Z,91767.56
2022-09-28T18:42:01.158Z,91774.78
2022-09-28T18:45:11.406Z,91768.78
2022-09-28T18:48:14.471Z,91765.00
2022-09-28T18:51:17.465Z,91766.97
2022-09-28T18:54:20.576Z,91772.88
2022-09-28T18:57:23.564Z,91766.31
2022-09-28T19:00:26.987Z,91770.88
2022-09-28T19:03:30.409Z,91777.41
2022-09-28T19:06:34.980Z,91775.38
2022-09-28T19:09:38.347Z,91776.03
2022-09-28T19:12:41.450Z,91779.88
2022-09-28T19:15:44.693Z,91779.25
2022-09-28T19:18:48.971Z,91786.47
2022-09-28T19:21:51.991Z,91779.22
2022-09-28T19:24:55.341Z,91784.59
2022-09-28T19:27:58.391Z,91785.25
2022-09-28T19:31:03.501Z,91785.19
2022-09-28T19:34:08.243Z,91797.53
2022-09-28T19:37:12.371Z,91787.06
2022-09-28T19:40:15.429Z,91800.19
2022-09-28T19:43:21.817Z,91800.19
2022-09-28T19:46:25.103Z,91800.19
2022-09-28T19:49:33.519Z,91796.94
2022-09-28T19:52:36.939Z,91814.56
2022-09-28T19:55:41.475Z,91823.09
2022-09-28T19:58:44.643Z,91819.75
2022-09-28T20:01:48.074Z,91828.22
2022-09-28T20:04:51.066Z,91840.63
2022-09-28T20:07:54.248Z,91835.47
2022-09-28T20:11:00.213Z,91831.53
2022-09-28T20:14:03.669Z,91837.47
2022-09-28T20:17:06.712Z,91841.91
2022-09-28T20:20:09.809Z,91853.78
2022-09-28T20:23:13.267Z,91848.63
2022-09-28T20:26:17.034Z,91845.41
2022-09-28T20:29:20.341Z,91858.53
2022-09-28T20:32:23.480Z,91865.78
2022-09-28T20:35:33.046Z,91869.84
2022-09-28T20:38:40.965Z,91863.28
2022-09-28T20:41:44.100Z,91855.53
2022-09-28T20:44:47.162Z,91860.09
2022-09-28T20:47:50.183Z,91859.47
2022-09-28T20:51:03.622Z,91865.50
2022-09-28T20:54:06.739Z,91866.34
2022-09-28T20:57:18.707Z,91873.06
2022-09-28T21:00:22.068Z,91879.13
2022-09-28T21:03:25.590Z,91881.16
2022-09-28T21:06:31.086Z,91890.97
2022-09-28T21:09:34.275Z,91900.19
2022-09-28T21:12:38.058Z,91918.56
2022-09-28T21:15:41.155Z,91931.09
2022-09-28T21:18:45.006Z,91940.25
2022-09-28T21:21:48.193Z,91943.56
2022-09-28T21:24:51.193Z,91951.41
2022-09-28T21:27:54.318Z,91948.16
2022-09-28T21:30:57.604Z,91958.00
2022-09-28T21:34:01.349Z,91954.78
2022-09-28T21:37:04.332Z,91937.16
2022-09-28T21:40:10.414Z,91937.16
2022-09-28T21:43:13.629Z,91944.97
2022-09-28T21:46:18.155Z,91944.34
2022-09-28T21:49:21.202Z,91933.97
2022-09-28T21:52:24.240Z,91939.81
2022-09-28T21:55:27.215Z,91943.81
2022-09-28T21:58:32.337Z,91953.66
2022-09-28T22:01:35.477Z,91947.19
2022-09-28T22:04:38.589Z,91966.09
2022-09-28T22:07:43.297Z,91973.28
2022-09-28T22:10:46.414Z,91975.84
2022-09-28T22:13:55.443Z,91988.88
2022-09-28T22:16:58.420Z,91992.91
2022-09-28T22:20:01.751Z,91994.19
2022-09-28T22:23:04.746Z,92005.38
2022-09-28T22:26:20.284Z,92000.72
2022-09-28T22:29:24.558Z,92005.31
2022-09-28T22:32:28.097Z,92019.00
2022-09-28T22:35:31.480Z,92023.59
2022-09-28T22:38:35.831Z,92030.13
2022-09-28T22:41:38.793Z,92038.00
2022-09-28T22:44:41.659Z,92044.59
2022-09-28T22:47:44.754Z,92057.66
2022-09-28T22:50:52.398Z,92057.59
2022-09-28T22:53:55.471Z,92058.28
2022-09-28T22:56:58.422Z,92062.22
2022-09-28T23:00:01.651Z,92064.16
2022-09-28T23:03:05.312Z,92058.94
2022-09-28T23:06:09.592Z,92072.00
2022-09-28T23:09:12.727Z,92060.91
2022-09-28T23:12:15.744Z,92064.84
2022-09-28T23:15:18.783Z,92062.22
2022-09-28T23:18:21.790Z,92085.72
2022-09-28T23:21:26.666Z,92085.63
2022-09-28T23:24:29.672Z,92094.09
2022-09-28T23:27:32.580Z,92099.34
2022-09-28T23:30:36.044Z,92101.31
2022-09-28T23:33:39.055Z,92103.28
2022-09-28T23:36:42.283Z,92111.03
2022-09-28T23:39:45.246Z,92122.16
2022-09-28T23:42:48.248Z,92125.41
2022-09-28T23:45:51.267Z,92122.13
2022-09-28T23:48:54.414Z,92137.72
2022-09-28T23:51:57.364Z,92136.94
2022-09-28T23:55:00.320Z,92141.38
2022-09-28T23:58:03.255Z,92145.94
